Time;durP1;ratioP1;P1;durP2;ratioP2;P2;SDS_P1;SDS_P2;PMS_P1;PMS_P2;Temp;Humidity;BMP_temperature;BMP_pressure;BME280_temperature;BME280_humidity;BME280_pressure;Samples;Min_cycle;Max_cycle;Signal;HPM_P1;HPM_P2
2022/05/20 00:02:23;;;;;;;45.92;32.63;;;27.50;99.90;;;;;;5095191;28;20123;-64
2022/05/20 00:04:50;;;;;;;54.70;34.35;;;27.60;99.90;;;;;;5095928;28;20107;-65
2022/05/20 00:07:17;;;;;;;53.03;34.35;;;27.60;99.90;;;;;;5095832;28;20017;-65
2022/05/20 00:09:45;;;;;;;52.50;37.20;;;27.50;99.90;;;;;;5096418;28;20463;-65
2022/05/20 00:12:12;;;;;;;55.13;36.25;;;27.50;99.90;;;;;;5095921;28;20046;-65
2022/05/20 00:14:39;;;;;;;49.05;33.30;;;27.50;99.90;;;;;;5095244;28;20070;-65
2022/05/20 00:17:06;;;;;;;47.88;30.95;;;27.50;99.90;;;;;;5095975;28;20027;-65
2022/05/20 00:19:33;;;;;;;41.47;29.75;;;27.50;99.90;;;;;;5096082;28;20388;-66
2022/05/20 00:22:00;;;;;;;48.80;30.20;;;27.50;99.90;;;;;;5095199;28;20032;-66
2022/05/20 00:24:27;;;;;;;60.53;35.30;;;27.60;99.90;;;;;;5095720;28;20031;-65
2022/05/20 00:26:56;;;;;;;46.00;33.10;;;27.70;99.90;;;;;;5094346;28;20024;-65
2022/05/20 00:29:24;;;;;;;49.83;32.53;;;27.70;99.90;;;;;;5095290;28;20343;-65
2022/05/20 00:31:50;;;;;;;48.70;31.30;;;27.70;99.90;;;;;;5094763;28;20035;-65
2022/05/20 00:34:17;;;;;;;53.65;33.88;;;27.70;99.90;;;;;;5095939;28;20552;-65
2022/05/20 00:36:44;;;;;;;45.13;32.75;;;27.70;99.90;;;;;;5095106;28;20492;-66
2022/05/20 00:39:11;;;;;;;47.13;29.50;;;27.70;99.90;;;;;;5095874;28;20020;-64
2022/05/20 00:41:37;;;;;;;54.55;32.80;;;27.70;99.90;;;;;;5093961;28;20039;-65
2022/05/20 00:44:04;;;;;;;57.42;36.75;;;27.70;99.90;;;;;;5094930;28;20103;-65
2022/05/20 00:46:31;;;;;;;47.67;31.13;;;27.70;99.90;;;;;;5094172;28;20063;-64
2022/05/20 00:49:11;;;;;;;66.93;44.85;;;27.70;99.90;;;;;;5095952;28;20035;-64
2022/05/20 00:51:50;;;;;;;48.83;31.08;;;27.70;99.90;;;;;;5095424;28;20020;-65
2022/05/20 00:54:28;;;;;;;49.33;35.10;;;27.70;99.90;;;;;;5094899;28;20605;-65
2022/05/20 00:57:09;;;;;;;64.97;41.75;;;27.70;99.90;;;;;;5095575;28;20081;-64
2022/05/20 00:59:39;;;;;;;59.00;38.58;;;27.60;99.90;;;;;;5093176;28;20548;-65
2022/05/20 01:02:12;;;;;;;55.08;36.53;;;27.60;99.90;;;;;;5093286;28;20032;-65
2022/05/20 01:04:39;;;;;;;56.28;41.17;;;27.60;99.90;;;;;;5075008;28;20020;-66
2022/05/20 01:07:08;;;;;;;179.40;122.47;;;27.70;99.90;;;;;;5075009;28;20383;-65
2022/05/20 01:09:38;;;;;;;121.38;82.65;;;27.70;99.90;;;;;;5074871;28;20052;-65
2022/05/20 01:12:07;;;;;;;48.63;34.15;;;27.80;99.90;;;;;;5074552;28;20036;-65
2022/05/20 01:14:34;;;;;;;44.42;29.65;;;27.70;99.90;;;;;;5075960;28;20035;-65
2022/05/20 01:17:01;;;;;;;47.33;32.63;;;27.80;99.90;;;;;;5094286;28;20054;-65
2022/05/20 01:19:28;;;;;;;59.97;42.03;;;27.80;99.90;;;;;;5094122;28;20027;-65
2022/05/20 01:21:55;;;;;;;50.17;30.65;;;27.80;99.90;;;;;;5095096;28;20059;-65
2022/05/20 01:24:21;;;;;;;147.77;97.18;;;27.80;99.90;;;;;;5094838;28;20430;-64
2022/05/20 01:26:48;;;;;;;41.20;26.52;;;27.80;99.90;;;;;;5094970;28;20415;-64
2022/05/20 01:29:15;;;;;;;45.90;27.30;;;27.80;99.90;;;;;;5094840;28;20024;-65
2022/05/20 01:31:41;;;;;;;45.72;26.17;;;27.80;99.90;;;;;;5094594;28;20108;-64
2022/05/20 01:34:08;;;;;;;47.53;29.27;;;27.80;99.90;;;;;;5093532;28;20031;-65
2022/05/20 01:36:35;;;;;;;42.38;28.20;;;27.80;99.90;;;;;;5092324;28;20024;-65
2022/05/20 01:39:02;;;;;;;48.83;30.55;;;27.90;99.90;;;;;;5093600;28;20020;-65
2022/05/20 01:41:30;;;;;;;43.13;31.23;;;27.90;99.90;;;;;;5094374;28;20024;-65
2022/05/20 01:44:11;;;;;;;58.83;34.85;;;27.90;99.90;;;;;;5094389;28;20031;-65
2022/05/20 01:46:41;;;;;;;60.37;36.60;;;28.00;99.90;;;;;;5092405;28;20028;-64
2022/05/20 01:49:34;;;;;;;76.43;51.17;;;27.90;99.90;;;;;;5094344;28;20098;-65
2022/05/20 01:52:06;;;;;;;49.45;35.50;;;28.00;99.90;;;;;;5030983;28;20144;-64
2022/05/20 01:54:34;;;;;;;114.50;65.53;;;28.10;99.90;;;;;;5031478;28;20034;-66
2022/05/20 01:57:16;;;;;;;74.38;44.95;;;28.20;99.90;;;;;;5031835;28;20813;-66
2022/05/20 01:59:46;;;;;;;1173.25;633.67;;;28.20;99.90;;;;;;5031229;28;20033;-65
2022/05/20 02:02:24;;;;;;;540.03;296.65;;;28.30;99.90;;;;;;5031111;28;20044;-64
2022/05/20 02:05:01;;;;;;;199.32;102.72;;;28.40;99.90;;;;;;5031823;28;20021;-65
2022/05/20 02:07:31;;;;;;;848.83;654.58;;;28.50;99.90;;;;;;5031967;28;20025;-65
2022/05/20 02:10:02;;;;;;;547.25;435.65;;;28.60;99.90;;;;;;5030904;28;20033;-65
2022/05/20 02:12:36;;;;;;;136.32;95.07;;;28.70;99.90;;;;;;5031478;28;20077;-64
2022/05/20 02:15:13;;;;;;;110.22;67.55;;;28.70;99.90;;;;;;5030867;28;20124;-64
2022/05/20 02:17:44;;;;;;;163.15;105.38;;;28.80;99.90;;;;;;5030976;28;20065;-64
2022/05/20 02:20:32;;;;;;;86.45;55.83;;;28.90;99.90;;;;;;5031461;28;20037;-63
2022/05/20 02:23:04;;;;;;;81.80;55.33;;;28.90;99.90;;;;;;5031500;28;20124;-64
2022/05/20 02:25:34;;;;;;;128.57;91.03;;;28.90;99.90;;;;;;5031394;28;20017;-64
2022/05/20 02:28:24;;;;;;;141.60;89.60;;;29.00;99.90;;;;;;5033881;28;20562;-64
2022/05/20 02:30:52;;;;;;;77.60;54.35;;;29.10;99.90;;;;;;5017108;28;20047;-61
2022/05/20 02:33:22;;;;;;;104.65;68.93;;;29.10;99.90;;;;;;5031435;28;20036;-61
2022/05/20 02:35:49;;;;;;;86.72;52.50;;;29.10;99.90;;;;;;5031352;28;20036;-61
2022/05/20 02:38:21;;;;;;;73.45;52.58;;;29.10;99.90;;;;;;5031098;28;20029;-62
2022/05/20 02:40:50;;;;;;;93.20;62.20;;;29.10;99.90;;;;;;5031237;28;20048;-62
2022/05/20 02:43:17;;;;;;;82.38;56.80;;;29.20;99.90;;;;;;5031257;28;20037;-62
2022/05/20 02:45:46;;;;;;;96.15;64.15;;;29.30;99.90;;;;;;5029726;28;20088;-62
2022/05/20 02:48:16;;;;;;;126.45;82.95;;;29.30;99.90;;;;;;5024104;28;20029;-62
2022/05/20 02:50:43;;;;;;;92.45;61.40;;;29.30;99.90;;;;;;5013666;28;20048;-64
2022/05/20 02:53:10;;;;;;;79.82;56.13;;;29.30;99.90;;;;;;5026646;28;20474;-64
2022/05/20 02:55:37;;;;;;;75.72;54.75;;;29.30;99.90;;;;;;5030522;28;20072;-63
2022/05/20 02:58:04;;;;;;;63.45;48.38;;;29.40;99.90;;;;;;5029535;28;20119;-64
2022/05/20 03:06:04;;;;;;;65.40;46.10;;;29.60;99.90;;;;;;5092957;28;20031;-64
2022/05/20 03:08:31;;;;;;;94.78;67.97;;;29.70;99.90;;;;;;5092522;28;20399;-66
2022/05/20 03:10:58;;;;;;;69.85;49.72;;;29.80;99.90;;;;;;5092073;28;20114;-64
2022/05/20 03:13:24;;;;;;;66.18;45.55;;;29.90;99.90;;;;;;5090729;28;20068;-63
2022/05/20 03:15:51;;;;;;;59.35;40.85;;;30.00;99.90;;;;;;5092310;28;20031;-63
2022/05/20 03:18:18;;;;;;;53.80;36.97;;;30.10;99.90;;;;;;5093083;28;20028;-63
2022/05/20 03:20:45;;;;;;;48.78;34.70;;;30.10;99.90;;;;;;5093454;28;20056;-63
2022/05/20 03:23:11;;;;;;;46.47;34.80;;;30.10;99.90;;;;;;5093659;28;20020;-65
2022/05/20 03:25:39;;;;;;;44.35;30.20;;;30.10;99.90;;;;;;5093605;28;20024;-64
2022/05/20 03:28:06;;;;;;;41.75;30.55;;;30.10;99.90;;;;;;5092673;28;20028;-63
2022/05/20 03:30:32;;;;;;;40.67;30.17;;;30.20;99.90;;;;;;5093602;28;20027;-64
2022/05/20 03:32:59;;;;;;;44.70;30.92;;;30.30;99.90;;;;;;5089589;28;20524;-63
2022/05/20 03:35:26;;;;;;;41.63;30.45;;;30.30;99.90;;;;;;5092488;28;20032;-64
2022/05/20 03:37:52;;;;;;;42.75;29.98;;;30.30;99.90;;;;;;5091173;28;20544;-64
2022/05/20 03:40:19;;;;;;;37.85;29.05;;;30.40;99.90;;;;;;5093107;28;20028;-65
2022/05/20 03:42:46;;;;;;;46.88;29.23;;;30.50;99.90;;;;;;5092151;28;20031;-65
2022/05/20 03:45:12;;;;;;;45.33;30.33;;;30.60;99.90;;;;;;5081626;28;20063;-63
2022/05/20 03:47:39;;;;;;;39.72;29.00;;;30.70;99.90;;;;;;5088332;28;20077;-64
2022/05/20 03:50:06;;;;;;;46.15;33.35;;;30.80;99.90;;;;;;5090059;28;20028;-64
2022/05/20 03:52:33;;;;;;;38.22;28.27;;;31.00;99.90;;;;;;5091973;28;20500;-64
2022/05/20 03:55:00;;;;;;;44.15;29.60;;;31.10;99.90;;;;;;5088678;28;20020;-62
2022/05/20 03:57:27;;;;;;;46.40;32.88;;;31.10;99.90;;;;;;5091777;28;20034;-64
2022/05/20 03:59:54;;;;;;;41.00;29.52;;;31.20;99.90;;;;;;5094651;28;20024;-63
2022/05/20 04:02:21;;;;;;;49.50;36.40;;;31.20;99.90;;;;;;5092326;28;20062;-62
2022/05/20 04:04:52;;;;;;;54.08;39.92;;;31.30;99.90;;;;;;5092076;28;20058;-63
2022/05/20 04:07:24;;;;;;;45.13;33.37;;;31.30;99.90;;;;;;5089071;28;20028;-62
2022/05/20 04:09:52;;;;;;;43.70;30.38;;;31.40;99.90;;;;;;5095636;28;20020;-63
2022/05/20 04:12:30;;;;;;;36.85;27.90;;;31.50;99.90;;;;;;5091993;28;20097;-62
2022/05/20 04:14:57;;;;;;;41.15;28.27;;;31.50;99.90;;;;;;5094028;28;20024;-62
2022/05/20 04:17:25;;;;;;;41.15;27.83;;;31.60;99.90;;;;;;5092861;28;20032;-64
2022/05/20 04:19:52;;;;;;;54.25;36.20;;;31.50;99.90;;;;;;5089614;28;20024;-62
2022/05/20 04:22:25;;;;;;;78.38;61.03;;;31.50;99.90;;;;;;5090302;28;20028;-63
2022/05/20 04:24:51;;;;;;;84.53;60.60;;;31.50;99.90;;;;;;5091452;28;20024;-61
2022/05/20 04:27:18;;;;;;;41.92;29.67;;;31.60;99.90;;;;;;5092363;28;20028;-62
2022/05/20 04:29:45;;;;;;;47.28;34.00;;;31.50;99.90;;;;;;5091185;28;20085;-63
2022/05/20 04:32:11;;;;;;;82.05;50.97;;;31.50;99.90;;;;;;5095145;28;20024;-63
2022/05/20 04:34:38;;;;;;;43.50;31.20;;;31.60;99.90;;;;;;5088620;28;20036;-63
2022/05/20 04:37:05;;;;;;;40.40;27.83;;;31.60;99.90;;;;;;5087050;28;20035;-64
2022/05/20 04:39:32;;;;;;;39.25;27.30;;;31.60;99.90;;;;;;5091924;28;20054;-64
2022/05/20 04:47:33;;;;;;;39.72;25.65;;;31.60;99.90;;;;;;5094603;28;20081;-64
2022/05/20 04:50:01;;;;;;;37.13;26.08;;;31.60;99.90;;;;;;5091721;28;20102;-63
2022/05/20 04:52:28;;;;;;;41.47;29.00;;;31.60;99.90;;;;;;5093397;28;20507;-64
2022/05/20 04:54:55;;;;;;;99.47;63.88;;;31.70;99.90;;;;;;5090065;28;20024;-64
2022/05/20 04:57:35;;;;;;;61.90;41.15;;;31.80;99.90;;;;;;5088252;28;20472;-65
2022/05/20 05:00:14;;;;;;;64.00;41.92;;;32.00;99.90;;;;;;5086583;28;20052;-64
2022/05/20 05:02:41;;;;;;;64.00;37.28;;;32.10;99.90;;;;;;5090757;28;20016;-63
2022/05/20 05:05:11;;;;;;;45.42;29.42;;;32.20;99.90;;;;;;5092466;28;20071;-64
2022/05/20 05:07:40;;;;;;;37.85;26.10;;;32.30;99.90;;;;;;5093217;28;20023;-64
2022/05/20 05:10:08;;;;;;;37.22;24.98;;;32.30;99.90;;;;;;5095854;28;20028;-63
2022/05/20 05:12:35;;;;;;;43.17;29.15;;;32.40;99.90;;;;;;5089350;28;20040;-64
2022/05/20 05:15:03;;;;;;;36.78;27.90;;;32.40;99.90;;;;;;5091696;28;20024;-63
2022/05/20 05:20:21;;;;;;;32.60;27.20;;;32.50;99.90;;;;;;5091893;28;20024;-64
2022/05/20 05:22:52;;;;;;;36.13;26.08;;;32.50;99.90;;;;;;5082590;28;20074;-63
2022/05/20 05:25:22;;;;;;;34.47;25.50;;;32.60;99.80;;;;;;5080503;28;20098;-65
2022/05/20 05:27:49;;;;;;;35.60;26.55;;;32.70;99.90;;;;;;5093601;28;20287;-65
2022/05/20 05:30:16;;;;;;;32.15;24.83;;;32.70;99.20;;;;;;5094985;28;20468;-68
2022/05/20 05:32:43;;;;;;;37.10;24.75;;;32.80;98.40;;;;;;5089281;28;20038;-67
2022/05/20 05:35:14;;;;;;;32.38;25.13;;;32.80;98.90;;;;;;5092389;28;20244;-65
2022/05/20 05:37:41;;;;;;;32.20;24.40;;;32.80;98.30;;;;;;5090958;28;20085;-65
2022/05/20 05:40:12;;;;;;;38.92;26.73;;;32.80;98.10;;;;;;5093731;28;20020;-66
2022/05/20 05:42:42;;;;;;;37.60;26.30;;;32.90;98.10;;;;;;5088288;28;20115;-65
2022/05/20 05:45:11;;;;;;;34.40;25.15;;;32.90;98.40;;;;;;5092246;28;20020;-65
2022/05/20 05:47:38;;;;;;;45.20;26.25;;;33.00;98.00;;;;;;5069212;28;20115;-68
2022/05/20 05:50:06;;;;;;;40.60;25.83;;;33.10;98.00;;;;;;5091349;28;20020;-70
2022/05/20 05:52:33;;;;;;;71.32;51.60;;;33.10;96.90;;;;;;5093996;28;20020;-67
2022/05/20 05:55:01;;;;;;;50.08;31.60;;;33.10;96.80;;;;;;5093376;28;20047;-64
2022/05/20 05:57:29;;;;;;;40.45;31.27;;;33.10;97.00;;;;;;5093014;28;20032;-66
2022/05/20 05:59:57;;;;;;;52.85;39.42;;;33.20;97.00;;;;;;5093904;28;20039;-66
2022/05/20 06:02:24;;;;;;;42.83;29.77;;;33.20;96.60;;;;;;5089399;28;20038;-68
2022/05/20 06:04:51;;;;;;;42.40;31.02;;;33.20;96.00;;;;;;5093277;28;20024;-67
2022/05/20 06:07:19;;;;;;;49.22;36.67;;;33.20;95.40;;;;;;5092120;28;20047;-68
2022/05/20 06:09:46;;;;;;;39.45;30.75;;;33.20;95.70;;;;;;5094304;28;20464;-68
2022/05/20 06:12:14;;;;;;;71.05;59.03;;;33.30;96.00;;;;;;5089858;28;20040;-69
2022/05/20 06:14:41;;;;;;;51.13;40.30;;;33.30;96.30;;;;;;5093819;28;20046;-70
2022/05/20 06:17:12;;;;;;;38.20;28.25;;;33.40;95.40;;;;;;5088129;28;20468;-69
2022/05/20 06:19:39;;;;;;;64.28;41.35;;;33.40;95.30;;;;;;5090226;28;20028;-67
2022/05/20 06:22:06;;;;;;;56.95;39.83;;;33.50;95.30;;;;;;5093085;28;20384;-67
2022/05/20 06:24:33;;;;;;;38.10;28.23;;;33.60;95.00;;;;;;5090607;28;20547;-65
2022/05/20 06:27:00;;;;;;;41.03;27.92;;;33.30;94.50;;;;;;5092609;28;20052;-67
2022/05/20 06:29:27;;;;;;;40.10;27.73;;;33.40;94.80;;;;;;5089686;28;20021;-66
2022/05/20 06:31:53;;;;;;;34.75;26.60;;;33.50;95.20;;;;;;5089321;28;20038;-66
2022/05/20 06:34:20;;;;;;;31.73;26.85;;;33.60;95.00;;;;;;5088741;28;20500;-65
2022/05/20 06:42:20;;;;;;;36.05;26.95;;;33.80;93.10;;;;;;5087958;28;20231;-67
2022/05/20 06:44:46;;;;;;;31.88;26.75;;;33.90;93.70;;;;;;5090201;28;20031;-68
2022/05/20 06:47:13;;;;;;;35.92;26.23;;;34.00;93.40;;;;;;5092204;28;20431;-67
2022/05/20 06:49:42;;;;;;;31.60;25.63;;;34.00;92.80;;;;;;5074942;28;20024;-67
2022/05/20 06:52:09;;;;;;;35.72;27.42;;;34.00;92.20;;;;;;5092706;28;20448;-69
2022/05/20 06:54:35;;;;;;;35.38;24.80;;;34.00;91.60;;;;;;5091029;28;20475;-67
2022/05/20 06:57:02;;;;;;;33.95;26.00;;;34.00;91.90;;;;;;5091799;28;20051;-66
2022/05/20 06:59:29;;;;;;;32.10;25.55;;;34.00;92.10;;;;;;5092213;28;20420;-67
2022/05/20 07:02:00;;;;;;;29.55;23.52;;;34.10;91.50;;;;;;5088116;28;20032;-73
2022/05/20 07:04:31;;;;;;;24.80;22.15;;;34.10;91.10;;;;;;5089231;28;20499;-69
2022/05/20 07:06:59;;;;;;;31.30;24.13;;;34.00;91.00;;;;;;5093596;28;20068;-66
2022/05/20 07:09:26;;;;;;;38.30;25.60;;;33.90;90.40;;;;;;5093586;28;20043;-67
2022/05/20 07:11:53;;;;;;;33.28;23.05;;;33.90;90.60;;;;;;5092933;28;20032;-66
2022/05/20 07:14:19;;;;;;;31.85;23.50;;;34.00;90.80;;;;;;5092966;28;20028;-65
2022/05/20 07:16:46;;;;;;;29.65;22.60;;;33.90;89.50;;;;;;5092636;28;20035;-67
2022/05/20 07:19:13;;;;;;;31.25;23.83;;;33.80;88.90;;;;;;5093555;28;20051;-66
2022/05/20 07:21:39;;;;;;;30.50;22.08;;;33.80;89.80;;;;;;5093906;28;20027;-63
2022/05/20 07:24:07;;;;;;;28.98;21.23;;;33.60;89.10;;;;;;5093838;28;20153;-63
2022/05/20 07:26:34;;;;;;;26.02;19.92;;;33.70;89.10;;;;;;5093662;28;20031;-63
2022/05/20 07:29:01;;;;;;;23.92;17.27;;;33.80;87.50;;;;;;5092264;28;20024;-65
2022/05/20 07:31:28;;;;;;;26.92;16.17;;;33.70;84.50;;;;;;5091190;28;20024;-66
2022/05/20 07:33:55;;;;;;;26.20;16.98;;;33.60;84.60;;;;;;5076645;28;20198;-63
2022/05/20 07:36:22;;;;;;;32.78;18.20;;;33.70;85.60;;;;;;5097324;28;20036;-63
2022/05/20 07:38:50;;;;;;;22.67;17.45;;;33.80;85.60;;;;;;5098536;28;20054;-63
2022/05/20 07:41:19;;;;;;;24.25;18.45;;;33.90;85.50;;;;;;5095024;28;20089;-62
2022/05/20 07:43:46;;;;;;;27.10;18.08;;;33.90;83.60;;;;;;5096560;28;20036;-62
2022/05/20 07:46:13;;;;;;;27.80;18.42;;;33.80;85.10;;;;;;5095846;28;20077;-63
2022/05/20 07:48:39;;;;;;;28.80;19.27;;;33.90;84.90;;;;;;5095691;28;20016;-63
2022/05/20 07:51:12;;;;;;;34.95;24.67;;;34.00;85.10;;;;;;5096636;28;20027;-63
2022/05/20 07:53:44;;;;;;;24.20;17.95;;;34.10;84.10;;;;;;5096874;28;20020;-64
2022/05/20 07:56:18;;;;;;;20.75;16.38;;;34.20;83.50;;;;;;5096585;28;20028;-64
2022/05/20 07:58:58;;;;;;;27.95;17.00;;;34.20;84.80;;;;;;5092095;28;20118;-63
2022/05/20 08:01:29;;;;;;;21.98;17.75;;;34.30;82.50;;;;;;5096674;28;20020;-63
2022/05/20 08:06:58;;;;;;;29.67;18.95;;;34.10;82.60;;;;;;5080225;28;20025;-62
2022/05/20 08:09:26;;;;;;;24.05;16.88;;;34.00;83.40;;;;;;5084731;28;20352;-62
2022/05/20 08:11:53;;;;;;;22.17;14.35;;;34.00;81.50;;;;;;5096314;28;20024;-62
2022/05/20 08:14:19;;;;;;;29.63;15.60;;;33.90;81.20;;;;;;5096910;28;20024;-63
2022/05/20 08:16:46;;;;;;;19.77;14.35;;;33.80;81.00;;;;;;5096700;28;20028;-63
2022/05/20 08:19:13;;;;;;;27.65;15.10;;;33.80;83.50;;;;;;5095441;28;20035;-61
2022/05/20 08:21:39;;;;;;;20.00;15.52;;;33.80;83.10;;;;;;5089878;28;20522;-62
2022/05/20 08:24:07;;;;;;;46.10;28.35;;;33.80;83.70;;;;;;5093099;28;20030;-62
2022/05/20 08:26:33;;;;;;;45.90;25.48;;;33.80;83.50;;;;;;5092698;28;20035;-62
2022/05/20 08:29:00;;;;;;;40.78;26.20;;;33.70;82.10;;;;;;5096638;28;20299;-63
2022/05/20 08:31:27;;;;;;;42.67;27.10;;;33.80;82.90;;;;;;5096858;28;20020;-62
2022/05/20 08:33:54;;;;;;;27.63;15.85;;;33.80;83.40;;;;;;5095351;28;20035;-62
2022/05/20 08:36:22;;;;;;;25.30;15.80;;;33.80;80.40;;;;;;5094578;28;20460;-62
2022/05/20 08:38:52;;;;;;;19.33;15.23;;;33.90;81.60;;;;;;5091094;28;20066;-62
2022/05/20 08:41:27;;;;;;;20.50;15.95;;;33.90;80.50;;;;;;5089013;28;20024;-62
2022/05/20 08:43:54;;;;;;;20.92;15.20;;;33.80;81.70;;;;;;5090114;28;20437;-61
2022/05/20 08:46:23;;;;;;;32.38;18.77;;;33.80;82.80;;;;;;5089866;28;20023;-62
2022/05/20 08:48:53;;;;;;;26.65;16.75;;;33.80;83.00;;;;;;5095570;28;20020;-62
2022/05/20 08:51:23;;;;;;;31.50;19.58;;;33.90;81.10;;;;;;5087850;28;20108;-62
2022/05/20 08:53:50;;;;;;;39.28;23.83;;;33.90;80.00;;;;;;5087153;28;20056;-63
2022/05/20 08:56:23;;;;;;;45.28;26.35;;;33.80;78.80;;;;;;5091054;28;20407;-62
2022/05/20 08:58:55;;;;;;;46.58;24.33;;;33.70;79.50;;;;;;5091990;28;20051;-62
2022/05/20 09:01:28;;;;;;;26.63;14.77;;;33.70;79.30;;;;;;5095425;28;20470;-62
2022/05/20 09:03:54;;;;;;;26.20;18.67;;;33.70;79.20;;;;;;5095775;28;20077;-63
2022/05/20 09:06:23;;;;;;;24.23;16.52;;;33.80;79.00;;;;;;5095640;28;20066;-62
2022/05/20 09:09:11;;;;;;;24.30;16.70;;;33.80;79.70;;;;;;5092430;28;20024;-63
2022/05/20 09:11:42;;;;;;;36.30;19.33;;;33.80;80.40;;;;;;5032196;28;20084;-62
2022/05/20 09:17:11;;;;;;;25.05;16.20;;;33.80;80.90;;;;;;5032062;28;20069;-62
2022/05/20 09:19:38;;;;;;;28.73;17.33;;;33.70;79.30;;;;;;5030821;28;20028;-63
2022/05/20 09:22:15;;;;;;;29.05;15.88;;;33.60;79.50;;;;;;5032564;28;20509;-62
2022/05/20 09:24:45;;;;;;;26.35;15.43;;;33.60;79.50;;;;;;5032622;28;20044;-61
2022/05/20 09:27:19;;;;;;;27.33;16.98;;;33.60;79.50;;;;;;5032292;28;20121;-63
2022/05/20 09:29:47;;;;;;;32.47;19.70;;;33.60;80.00;;;;;;5030581;28;20070;-63
2022/05/20 09:32:25;;;;;;;29.55;19.13;;;33.60;81.40;;;;;;5030637;28;20045;-62
2022/05/20 09:35:01;;;;;;;26.38;17.27;;;33.60;82.40;;;;;;5028144;28;20489;-63
2022/05/20 09:37:30;;;;;;;34.50;19.02;;;33.60;81.50;;;;;;5032348;28;20493;-62
2022/05/20 09:39:57;;;;;;;28.58;17.95;;;33.60;81.20;;;;;;5035169;28;20104;-62
2022/05/20 09:42:29;;;;;;;29.70;16.67;;;33.50;82.10;;;;;;5058449;28;20536;-62
2022/05/20 09:45:00;;;;;;;33.78;17.77;;;33.50;81.30;;;;;;5095588;28;20029;-60
2022/05/20 09:47:26;;;;;;;36.95;22.92;;;33.50;82.10;;;;;;5094651;28;20027;-62
2022/05/20 09:49:55;;;;;;;38.20;23.13;;;33.50;81.60;;;;;;5090411;28;20174;-63
2022/05/20 09:52:31;;;;;;;72.20;47.33;;;33.50;82.50;;;;;;5090107;28;20028;-63
2022/05/20 09:55:06;;;;;;;54.85;35.70;;;33.40;82.10;;;;;;5090278;28;20131;-62
2022/05/20 09:57:38;;;;;;;32.88;21.70;;;33.40;83.00;;;;;;5089451;28;20084;-63
2022/05/20 10:00:07;;;;;;;29.08;17.75;;;33.40;83.10;;;;;;5094093;28;20421;-63
2022/05/20 10:02:50;;;;;;;27.63;17.25;;;33.30;82.70;;;;;;5094298;28;20508;-62
2022/05/20 10:05:37;;;;;;;36.22;24.50;;;33.30;84.70;;;;;;5094365;28;20016;-62
2022/05/20 10:08:13;;;;;;;22.95;16.13;;;33.30;84.80;;;;;;5091709;28;20769;-63
2022/05/20 10:10:52;;;;;;;31.10;19.83;;;33.30;84.20;;;;;;5090789;28;20028;-64
2022/05/20 10:13:37;;;;;;;34.58;23.85;;;33.30;83.70;;;;;;5087141;28;20036;-62
2022/05/20 10:16:25;;;;;;;43.88;26.20;;;33.30;85.10;;;;;;5090390;28;20020;-63
2022/05/20 10:19:01;;;;;;;34.53;19.75;;;33.30;84.40;;;;;;5092587;28;20062;-63
2022/05/20 10:21:32;;;;;;;24.58;17.65;;;33.20;84.20;;;;;;5087577;28;20040;-61
2022/05/20 10:24:29;;;;;;;43.58;26.60;;;33.20;84.20;;;;;;5087125;28;20111;-61
2022/05/20 10:27:35;;;;;;;67.40;45.67;;;33.10;85.20;;;;;;5039684;28;20033;-62
2022/05/20 10:33:13;;;;;;;58.55;32.80;;;33.00;85.20;;;;;;5043070;28;20047;-62
2022/05/20 10:35:49;;;;;;;47.05;26.33;;;33.00;85.70;;;;;;5043572;28;20087;-63
2022/05/20 10:38:25;;;;;;;45.28;26.83;;;32.90;86.00;;;;;;5046643;28;20025;-63
2022/05/20 10:41:20;;;;;;;55.65;28.80;;;32.90;86.70;;;;;;5045134;28;20037;-64
2022/05/20 10:49:44;;;;;;;141.48;88.55;;;32.80;89.10;;;;;;4996429;28;20041;-63
2022/05/20 10:52:17;;;;;;;121.93;76.57;;;32.60;90.60;;;;;;5010999;28;20135;-62
2022/05/20 10:55:04;;;;;;;135.65;83.50;;;32.60;91.70;;;;;;5009901;28;20068;-63
2022/05/20 10:57:59;;;;;;;123.40;78.82;;;32.40;91.90;;;;;;5030272;28;20305;-63
2022/05/20 11:00:50;;;;;;;94.22;62.30;;;32.10;92.50;;;;;;5051046;28;20106;-63
2022/05/20 11:03:19;;;;;;;91.97;62.15;;;32.10;93.10;;;;;;5060013;28;20029;-63
2022/05/20 11:05:55;;;;;;;108.45;67.28;;;32.10;93.00;;;;;;5070721;28;20032;-63
2022/05/20 11:08:39;;;;;;;133.75;86.68;;;31.90;93.10;;;;;;5054038;28;20033;-64
2022/05/20 11:11:26;;;;;;;103.45;69.93;;;31.70;93.60;;;;;;5054766;28;20039;-63
2022/05/20 11:14:12;;;;;;;112.50;65.13;;;31.70;94.00;;;;;;5055035;28;20076;-61
2022/05/20 11:16:57;;;;;;;88.97;58.47;;;31.50;94.10;;;;;;5055262;28;20452;-63
2022/05/20 11:19:49;;;;;;;82.97;53.70;;;31.30;94.20;;;;;;5055020;28;20524;-62
2022/05/20 11:22:42;;;;;;;102.75;58.58;;;31.20;94.60;;;;;;5050131;28;20028;-63
2022/05/20 11:25:09;;;;;;;;;;;31.20;95.10;;;;;;5052542;28;20294;-63
2022/05/20 11:27:49;;;;;;;100.63;62.28;;;31.10;95.00;;;;;;5082712;28;19950;-63
2022/05/20 11:30:28;;;;;;;90.45;56.90;;;31.10;95.30;;;;;;5096573;28;20103;-66
2022/05/20 11:33:08;;;;;;;145.13;103.53;;;31.10;96.00;;;;;;5096706;28;20472;-61
2022/05/20 11:36:03;;;;;;;107.85;72.22;;;31.10;95.90;;;;;;5096467;28;20024;-62
2022/05/20 11:38:58;;;;;;;110.60;83.05;;;31.20;96.20;;;;;;5096242;28;20028;-62
2022/05/20 11:42:04;;;;;;;78.30;52.20;;;31.20;96.20;;;;;;5094598;28;20085;-63
2022/05/20 11:45:10;;;;;;;65.43;48.50;;;31.20;96.60;;;;;;5093357;28;20019;-63
2022/05/20 11:47:48;;;;;;;58.97;42.17;;;31.00;96.40;;;;;;5092487;28;20028;-63
2022/05/20 11:50:22;;;;;;;69.20;43.65;;;31.00;96.80;;;;;;5091034;28;20035;-63
2022/05/20 11:53:14;;;;;;;60.72;40.78;;;30.80;97.60;;;;;;5094106;28;20020;-64
2022/05/20 11:55:51;;;;;;;66.65;39.92;;;30.60;97.50;;;;;;5054361;28;20491;-63
2022/05/20 11:58:44;;;;;;;68.38;44.47;;;30.60;97.90;;;;;;5050858;28;20040;-66
2022/05/20 12:01:11;;;;;;;136.50;103.80;;;30.60;98.10;;;;;;5006828;28;21501;-66
2022/05/20 12:06:15;;;;;;;83.72;61.88;;;30.60;98.70;;;;;;5006043;28;20484;-64
2022/05/20 12:08:44;;;;;;;75.85;57.00;;;30.60;98.50;;;;;;5009157;28;20494;-62
2022/05/20 12:11:38;;;;;;;65.72;43.67;;;30.60;98.50;;;;;;5013172;28;20046;-63
2022/05/20 12:14:05;;;;;;;67.22;41.53;;;30.30;98.90;;;;;;5006644;28;20042;-62
2022/05/20 12:16:34;;;;;;;56.60;39.40;;;30.00;99.40;;;;;;5005820;28;20120;-64
2022/05/20 12:24:55;;;;;;;59.85;40.45;;;29.80;99.90;;;;;;5005418;28;20094;-64
2022/05/20 12:27:23;;;;;;;72.95;44.17;;;29.70;99.90;;;;;;5020916;28;20033;-65
2022/05/20 12:30:29;;;;;;;73.63;52.60;;;29.60;99.90;;;;;;5014134;28;20038;-64
2022/05/20 12:32:56;;;;;;;55.97;41.08;;;29.60;99.90;;;;;;5033812;28;20033;-66
2022/05/20 12:35:29;;;;;;;64.10;43.65;;;29.60;99.90;;;;;;5033719;28;20605;-66
2022/05/20 12:38:15;;;;;;;65.00;40.63;;;29.60;99.90;;;;;;5024629;28;20594;-65
2022/05/20 12:40:42;;;;;;;63.85;45.10;;;29.50;99.90;;;;;;5015121;28;20038;-63
2022/05/20 12:43:10;;;;;;;58.08;36.78;;;29.40;99.90;;;;;;5030180;28;20033;-63
2022/05/20 12:45:47;;;;;;;55.92;40.35;;;29.40;99.90;;;;;;5068148;28;20075;-63
2022/05/20 12:48:16;;;;;;;64.07;38.13;;;29.50;99.90;;;;;;5088889;28;20032;-63
2022/05/20 12:50:43;;;;;;;44.58;34.60;;;29.30;99.90;;;;;;5095816;28;20024;-64
2022/05/20 12:53:13;;;;;;;57.20;36.85;;;29.40;99.90;;;;;;5095177;28;20016;-66
2022/05/20 12:55:43;;;;;;;55.40;38.03;;;29.30;99.90;;;;;;5095725;28;20024;-62
2022/05/20 12:58:14;;;;;;;58.92;37.53;;;29.50;99.90;;;;;;5095384;28;20024;-63
2022/05/20 13:00:47;;;;;;;60.33;39.58;;;29.50;99.90;;;;;;5096067;28;20027;-62
2022/05/20 13:03:18;;;;;;;54.97;38.42;;;29.40;99.90;;;;;;5095571;28;20095;-63
2022/05/20 13:05:50;;;;;;;46.10;35.38;;;29.30;99.90;;;;;;5095877;28;20028;-61
2022/05/20 13:08:21;;;;;;;56.07;37.00;;;29.40;99.90;;;;;;5095652;28;20103;-62
2022/05/20 13:10:48;;;;;;;67.80;39.55;;;29.40;99.90;;;;;;5095487;28;20249;-63
2022/05/20 13:13:30;;;;;;;51.95;37.28;;;29.30;99.90;;;;;;5094385;28;20078;-64
2022/05/20 13:16:00;;;;;;;;;;;29.20;99.90;;;;;;5096030;28;20024;-64
2022/05/20 13:18:33;;;;;;;51.08;39.00;;;29.20;99.90;;;;;;5093693;28;19915;-65
2022/05/20 13:21:06;;;;;;;78.88;55.15;;;29.20;99.90;;;;;;5091885;28;20384;-66
2022/05/20 13:23:36;;;;;;;114.38;89.75;;;29.20;99.90;;;;;;5099602;28;20015;-63
2022/05/20 13:26:04;;;;;;;122.80;87.07;;;29.20;99.90;;;;;;5092014;28;20443;-67
2022/05/20 13:28:35;;;;;;;54.70;41.15;;;29.20;99.90;;;;;;5088023;28;20024;-64
2022/05/20 13:31:06;;;;;;;56.87;38.23;;;29.30;99.90;;;;;;5091658;28;20035;-65